sensor_id;sensor_type;location;lat;lon;timestamp;pressure;altitude;pressure_sealevel;temperature;humidity
19510;BME280;9896;42.486;26.506;2023-03-14T00:01:19;100306.19;;;1.42;100.00
19510;BME280;9896;42.486;26.506;2023-03-14T00:03:48;100309.06;;;1.19;100.00
19510;BME280;9896;42.486;26.506;2023-03-14T00:06:14;100309.66;;;0.73;100.00
19510;BME280;9896;42.486;26.506;2023-03-14T00:08:41;100290.63;;;0.39;100.00
19510;BME280;9896;42.486;26.506;2023-03-14T00:11:12;100301.13;;;0.30;100.00
19510;BME280;9896;42.486;26.506;2023-03-14T00:13:39;100297.34;;;0.02;100.00
19510;BME280;9896;42.486;26.506;2023-03-14T00:16:07;100295.94;;;-0.02;100.00
19510;BME280;9896;42.486;26.506;2023-03-14T00:18:33;100285.28;;;-0.01;100.00
19510;BME280;9896;42.486;26.506;2023-03-14T00:21:00;100278.88;;;0.23;100.00
19510;BME280;9896;42.486;26.506;2023-03-14T00:23:30;100273.41;;;0.45;100.00
19510;BME280;9896;42.486;26.506;2023-03-14T00:26:05;100262.88;;;0.45;100.00
19510;BME280;9896;42.486;26.506;2023-03-14T00:28:30;100261.69;;;0.59;100.00
19510;BME280;9896;42.486;26.506;2023-03-14T00:30:56;100261.47;;;0.81;100.00
19510;BME280;9896;42.486;26.506;2023-03-14T00:33:22;100256.97;;;0.62;100.00
19510;BME280;9896;42.486;26.506;2023-03-14T00:35:57;100258.69;;;0.82;100.00
19510;BME280;9896;42.486;26.506;2023-03-14T00:38:23;100256.28;;;0.60;100.00
19510;BME280;9896;42.486;26.506;2023-03-14T00:40:50;100260.88;;;0.28;100.00
19510;BME280;9896;42.486;26.506;2023-03-14T00:43:16;100264.50;;;0.06;100.00
19510;BME280;9896;42.486;26.506;2023-03-14T00:45:42;100260.28;;;-0.27;100.00
19510;BME280;9896;42.486;26.506;2023-03-14T00:48:07;100263.66;;;0.06;100.00
19510;BME280;9896;42.486;26.506;2023-03-14T00:50:33;100256.19;;;0.11;100.00
19510;BME280;9896;42.486;26.506;2023-03-14T00:52:58;100258.91;;;0.20;100.00
19510;BME280;9896;42.486;26.506;2023-03-14T00:55:24;100263.34;;;0.20;100.00
19510;BME280;9896;42.486;26.506;2023-03-14T00:57:50;100243.84;;;0.11;100.00
19510;BME280;9896;42.486;26.506;2023-03-14T01:00:15;100262.13;;;0.03;100.00
19510;BME280;9896;42.486;26.506;2023-03-14T01:02:41;100260.75;;;0.09;100.00
19510;BME280;9896;42.486;26.506;2023-03-14T01:05:07;100264.13;;;0.11;100.00
19510;BME280;9896;42.486;26.506;2023-03-14T01:07:37;100257.81;;;0.02;100.00
19510;BME280;9896;42.486;26.506;2023-03-14T01:10:04;100253.28;;;0.14;100.00
19510;BME280;9896;42.486;26.506;2023-03-14T01:12:30;100248.41;;;0.39;100.00
19510;BME280;9896;42.486;26.506;2023-03-14T01:14:55;100233.44;;;0.40;100.00
19510;BME280;9896;42.486;26.506;2023-03-14T01:17:21;100239.72;;;0.49;100.00
19510;BME280;9896;42.486;26.506;2023-03-14T01:19:47;100253.25;;;0.34;100.00
19510;BME280;9896;42.486;26.506;2023-03-14T01:22:13;100248.09;;;0.23;100.00
19510;BME280;9896;42.486;26.506;2023-03-14T01:24:39;100244.13;;;0.08;100.00
19510;BME280;9896;42.486;26.506;2023-03-14T01:27:04;100238.44;;;0.13;100.00
19510;BME280;9896;42.486;26.506;2023-03-14T01:29:30;100230.81;;;0.40;100.00
19510;BME280;9896;42.486;26.506;2023-03-14T01:31:56;100242.97;;;0.31;100.00
19510;BME280;9896;42.486;26.506;2023-03-14T01:34:21;100239.94;;;0.36;100.00
19510;BME280;9896;42.486;26.506;2023-03-14T01:36:46;100223.56;;;0.32;100.00
19510;BME280;9896;42.486;26.506;2023-03-14T01:39:12;100227.03;;;0.42;100.00
19510;BME280;9896;42.486;26.506;2023-03-14T01:41:39;100235.50;;;0.36;100.00
19510;BME280;9896;42.486;26.506;2023-03-14T01:44:04;100226.22;;;0.42;100.00
19510;BME280;9896;42.486;26.506;2023-03-14T01:46:44;100230.69;;;0.51;100.00
19510;BME280;9896;42.486;26.506;2023-03-14T01:49:19;100222.72;;;0.41;100.00
19510;BME280;9896;42.486;26.506;2023-03-14T01:52:02;100224.56;;;0.51;100.00
19510;BME280;9896;42.486;26.506;2023-03-14T01:57:18;100226.03;;;0.24;100.00
19510;BME280;9896;42.486;26.506;2023-03-14T02:00:01;100220.47;;;0.27;100.00
19510;BME280;9896;42.486;26.506;2023-03-14T02:02:29;100223.22;;;0.26;100.00
19510;BME280;9896;42.486;26.506;2023-03-14T02:04:56;100218.50;;;0.20;100.00
19510;BME280;9896;42.486;26.506;2023-03-14T02:07:26;100227.16;;;0.31;100.00
19510;BME280;9896;42.486;26.506;2023-03-14T02:09:56;100226.25;;;0.21;100.00
19510;BME280;9896;42.486;26.506;2023-03-14T02:12:23;100223.97;;;0.37;100.00
19510;BME280;9896;42.486;26.506;2023-03-14T02:14:48;100218.75;;;0.47;100.00
19510;BME280;9896;42.486;26.506;2023-03-14T02:17:16;100212.63;;;0.46;100.00
19510;BME280;9896;42.486;26.506;2023-03-14T02:20:07;100219.19;;;0.52;100.00
19510;BME280;9896;42.486;26.506;2023-03-14T02:22:35;100220.97;;;0.52;100.00
19510;BME280;9896;42.486;26.506;2023-03-14T02:27:36;100228.56;;;0.05;100.00
19510;BME280;9896;42.486;26.506;2023-03-14T02:30:10;100228.25;;;-0.02;100.00
19510;BME280;9896;42.486;26.506;2023-03-14T02:32:39;100211.16;;;-0.28;100.00
19510;BME280;9896;42.486;26.506;2023-03-14T02:35:11;100220.50;;;-0.24;100.00
19510;BME280;9896;42.486;26.506;2023-03-14T02:38:00;100225.84;;;-0.35;100.00
19510;BME280;9896;42.486;26.506;2023-03-14T02:40:26;100220.19;;;-0.30;100.00
19510;BME280;9896;42.486;26.506;2023-03-14T02:42:52;100219.97;;;-0.18;100.00
19510;BME280;9896;42.486;26.506;2023-03-14T02:47:45;100223.28;;;-0.25;100.00
19510;BME280;9896;42.486;26.506;2023-03-14T02:50:19;100229.75;;;-0.29;100.00
19510;BME280;9896;42.486;26.506;2023-03-14T02:52:45;100213.88;;;-0.39;100.00
19510;BME280;9896;42.486;26.506;2023-03-14T02:55:11;100209.25;;;-0.67;100.00
19510;BME280;9896;42.486;26.506;2023-03-14T02:57:36;100213.63;;;-0.57;100.00
19510;BME280;9896;42.486;26.506;2023-03-14T03:00:03;100212.03;;;-0.48;100.00
19510;BME280;9896;42.486;26.506;2023-03-14T03:02:32;100211.72;;;-0.34;100.00
19510;BME280;9896;42.486;26.506;2023-03-14T03:04:58;100187.44;;;-0.37;100.00
19510;BME280;9896;42.486;26.506;2023-03-14T03:07:24;100208.50;;;-0.17;100.00
19510;BME280;9896;42.486;26.506;2023-03-14T03:09:49;100194.78;;;-0.11;100.00
19510;BME280;9896;42.486;26.506;2023-03-14T03:12:15;100200.88;;;-0.10;100.00
19510;BME280;9896;42.486;26.506;2023-03-14T03:14:40;100198.63;;;-0.45;100.00
19510;BME280;9896;42.486;26.506;2023-03-14T03:17:06;100202.66;;;-0.41;100.00
19510;BME280;9896;42.486;26.506;2023-03-14T03:19:33;100191.28;;;-0.41;100.00
19510;BME280;9896;42.486;26.506;2023-03-14T03:21:58;100192.63;;;-0.47;100.00
19510;BME280;9896;42.486;26.506;2023-03-14T03:24:26;100196.16;;;-0.37;100.00
19510;BME280;9896;42.486;26.506;2023-03-14T03:26:52;100192.06;;;-1.03;100.00
19510;BME280;9896;42.486;26.506;2023-03-14T03:29:18;100192.53;;;-1.41;100.00
19510;BME280;9896;42.486;26.506;2023-03-14T03:31:44;100194.75;;;-1.14;100.00
19510;BME280;9896;42.486;26.506;2023-03-14T03:34:11;100194.56;;;-1.33;100.00
19510;BME280;9896;42.486;26.506;2023-03-14T03:36:37;100199.41;;;-1.18;100.00
19510;BME280;9896;42.486;26.506;2023-03-14T03:39:02;100188.13;;;-1.41;100.00
19510;BME280;9896;42.486;26.506;2023-03-14T03:41:29;100189.44;;;-1.46;100.00
19510;BME280;9896;42.486;26.506;2023-03-14T03:43:54;100203.41;;;-1.46;100.00
19510;BME280;9896;42.486;26.506;2023-03-14T03:46:20;100215.28;;;-1.62;100.00
19510;BME280;9896;42.486;26.506;2023-03-14T03:48:45;100206.56;;;-1.74;100.00
19510;BME280;9896;42.486;26.506;2023-03-14T03:51:13;100201.09;;;-1.93;100.00
19510;BME280;9896;42.486;26.506;2023-03-14T03:53:39;100204.66;;;-1.61;100.00
19510;BME280;9896;42.486;26.506;2023-03-14T03:56:05;100202.28;;;-1.64;100.00
19510;BME280;9896;42.486;26.506;2023-03-14T03:58:30;100206.56;;;-1.52;100.00
19510;BME280;9896;42.486;26.506;2023-03-14T04:00:56;100203.09;;;-1.52;100.00
19510;BME280;9896;42.486;26.506;2023-03-14T04:03:21;100210.03;;;-1.62;100.00
19510;BME280;9896;42.486;26.506;2023-03-14T04:06:09;100210.84;;;-1.51;100.00
19510;BME280;9896;42.486;26.506;2023-03-14T04:08:35;100204.41;;;-1.58;100.00
19510;BME280;9896;42.486;26.506;2023-03-14T04:11:02;100198.31;;;-1.58;100.00
19510;BME280;9896;42.486;26.506;2023-03-14T04:13:27;100196.06;;;-1.20;100.00
19510;BME280;9896;42.486;26.506;2023-03-14T04:15:54;100202.81;;;-0.95;100.00
19510;BME280;9896;42.486;26.506;2023-03-14T04:18:20;100197.44;;;-1.36;100.00
19510;BME280;9896;42.486;26.506;2023-03-14T04:20:50;100185.66;;;-1.64;100.00
19510;BME280;9896;42.486;26.506;2023-03-14T04:23:16;100189.69;;;-1.49;100.00
19510;BME280;9896;42.486;26.506;2023-03-14T04:25:41;100195.91;;;-1.50;100.00
19510;BME280;9896;42.486;26.506;2023-03-14T04:28:07;100186.63;;;-1.76;100.00
19510;BME280;9896;42.486;26.506;2023-03-14T04:30:32;100186.63;;;-1.76;100.00
19510;BME280;9896;42.486;26.506;2023-03-14T04:32:58;100179.34;;;-1.84;100.00
19510;BME280;9896;42.486;26.506;2023-03-14T04:35:23;100191.28;;;-1.69;100.00
19510;BME280;9896;42.486;26.506;2023-03-14T04:37:49;100197.09;;;-1.54;100.00
19510;BME280;9896;42.486;26.506;2023-03-14T04:40:15;100186.84;;;-1.57;100.00
19510;BME280;9896;42.486;26.506;2023-03-14T04:42:41;100202.03;;;-1.61;100.00
19510;BME280;9896;42.486;26.506;2023-03-14T04:45:07;100195.09;;;-1.62;100.00
19510;BME280;9896;42.486;26.506;2023-03-14T04:47:32;100199.75;;;-1.65;100.00
19510;BME280;9896;42.486;26.506;2023-03-14T04:49:58;100189.38;;;-1.78;100.00
19510;BME280;9896;42.486;26.506;2023-03-14T04:52:23;100202.63;;;-1.68;100.00
19510;BME280;9896;42.486;26.506;2023-03-14T04:54:49;100198.44;;;-1.60;100.00
19510;BME280;9896;42.486;26.506;2023-03-14T04:57:14;100201.72;;;-1.24;100.00
19510;BME280;9896;42.486;26.506;2023-03-14T04:59:40;100201.66;;;-1.02;100.00
19510;BME280;9896;42.486;26.506;2023-03-14T05:02:05;100192.34;;;-0.85;100.00
19510;BME280;9896;42.486;26.506;2023-03-14T05:04:30;100195.78;;;-1.06;100.00
19510;BME280;9896;42.486;26.506;2023-03-14T05:06:58;100199.44;;;-0.97;100.00
19510;BME280;9896;42.486;26.506;2023-03-14T05:09:23;100193.13;;;-0.95;100.00
19510;BME280;9896;42.486;26.506;2023-03-14T05:11:49;100188.34;;;-1.32;100.00
19510;BME280;9896;42.486;26.506;2023-03-14T05:14:14;100192.44;;;-1.08;100.00
19510;BME280;9896;42.486;26.506;2023-03-14T05:16:40;100186.84;;;-0.82;100.00
19510;BME280;9896;42.486;26.506;2023-03-14T05:19:05;100198.25;;;-0.72;100.00
19510;BME280;9896;42.486;26.506;2023-03-14T05:21:31;100197.56;;;-0.74;100.00
19510;BME280;9896;42.486;26.506;2023-03-14T05:23:56;100202.78;;;-0.42;100.00
19510;BME280;9896;42.486;26.506;2023-03-14T05:26:21;100193.53;;;-0.37;100.00
19510;BME280;9896;42.486;26.506;2023-03-14T05:28:47;100197.13;;;-0.38;100.00
19510;BME280;9896;42.486;26.506;2023-03-14T05:31:12;100191.53;;;-0.44;100.00
19510;BME280;9896;42.486;26.506;2023-03-14T05:33:38;100188.19;;;-0.47;100.00
19510;BME280;9896;42.486;26.506;2023-03-14T05:36:03;100183.38;;;-0.11;100.00
19510;BME280;9896;42.486;26.506;2023-03-14T05:38:29;100180.63;;;-0.10;100.00
19510;BME280;9896;42.486;26.506;2023-03-14T05:40:54;100186.53;;;0.13;100.00
19510;BME280;9896;42.486;26.506;2023-03-14T05:43:21;100190.34;;;0.20;100.00
19510;BME280;9896;42.486;26.506;2023-03-14T05:45:46;100196.00;;;0.16;100.00
19510;BME280;9896;42.486;26.506;2023-03-14T05:48:12;100193.31;;;0.06;100.00
19510;BME280;9896;42.486;26.506;2023-03-14T05:50:38;100202.91;;;0.07;100.00
19510;BME280;9896;42.486;26.506;2023-03-14T05:53:03;100195.28;;;0.04;100.00
19510;BME280;9896;42.486;26.506;2023-03-14T05:55:29;100199.50;;;0.16;100.00
19510;BME280;9896;42.486;26.506;2023-03-14T05:57:54;100195.63;;;0.20;100.00
19510;BME280;9896;42.486;26.506;2023-03-14T06:00:21;100185.56;;;0.54;100.00
19510;BME280;9896;42.486;26.506;2023-03-14T06:02:46;100182.53;;;0.59;99.89
19510;BME280;9896;42.486;26.506;2023-03-14T06:05:12;100182.97;;;0.64;99.87
19510;BME280;9896;42.486;26.506;2023-03-14T06:07:37;100184.31;;;0.58;100.00
19510;BME280;9896;42.486;26.506;2023-03-14T06:10:03;100180.31;;;0.64;99.72
19510;BME280;9896;42.486;26.506;2023-03-14T06:12:29;100179.09;;;0.97;98.29
19510;BME280;9896;42.486;26.506;2023-03-14T06:14:54;100182.59;;;0.97;98.19
19510;BME280;9896;42.486;26.506;2023-03-14T06:17:20;100174.50;;;1.08;97.29
19510;BME280;9896;42.486;26.506;2023-03-14T06:19:45;100185.06;;;0.99;97.62
19510;BME280;9896;42.486;26.506;2023-03-14T06:22:11;100199.25;;;0.98;97.79
19510;BME280;9896;42.486;26.506;2023-03-14T06:24:36;100204.25;;;1.10;97.42
19510;BME280;9896;42.486;26.506;2023-03-14T06:27:02;100187.13;;;1.43;95.94
19510;BME280;9896;42.486;26.506;2023-03-14T06:29:28;100191.41;;;1.63;95.62
19510;BME280;9896;42.486;26.506;2023-03-14T06:31:54;100180.47;;;1.39;94.86
19510;BME280;9896;42.486;26.506;2023-03-14T06:34:20;100182.25;;;1.48;96.48
19510;BME280;9896;42.486;26.506;2023-03-14T06:36:45;100181.16;;;1.41;95.04
19510;BME280;9896;42.486;26.506;2023-03-14T06:39:10;100178.66;;;1.49;95.63
19510;BME280;9896;42.486;26.506;2023-03-14T06:41:36;100173.44;;;1.76;93.91
19510;BME280;9896;42.486;26.506;2023-03-14T06:44:01;100187.94;;;2.09;92.73
19510;BME280;9896;42.486;26.506;2023-03-14T06:46:27;100183.69;;;2.80;90.26
19510;BME280;9896;42.486;26.506;2023-03-14T06:48:52;100177.34;;;3.52;85.87
19510;BME280;9896;42.486;26.506;2023-03-14T06:51:18;100178.44;;;4.19;82.14
19510;BME280;9896;42.486;26.506;2023-03-14T06:53:44;100181.69;;;5.05;79.07
19510;BME280;9896;42.486;26.506;2023-03-14T06:56:09;100182.34;;;5.15;77.86
19510;BME280;9896;42.486;26.506;2023-03-14T06:58:35;100180.81;;;6.10;74.13
19510;BME280;9896;42.486;26.506;2023-03-14T07:01:00;100177.81;;;6.13;71.99
19510;BME280;9896;42.486;26.506;2023-03-14T07:03:26;100183.34;;;5.22;73.94
19510;BME280;9896;42.486;26.506;2023-03-14T07:05:52;100175.06;;;5.17;75.27
19510;BME280;9896;42.486;26.506;2023-03-14T07:08:17;100170.06;;;5.38;75.51
19510;BME280;9896;42.486;26.506;2023-03-14T07:10:43;100167.06;;;5.57;73.75
19510;BME280;9896;42.486;26.506;2023-03-14T07:13:08;100170.88;;;5.71;73.92
19510;BME280;9896;42.486;26.506;2023-03-14T07:15:34;100171.59;;;6.67;69.86
19510;BME280;9896;42.486;26.506;2023-03-14T07:17:59;100172.81;;;7.10;67.03
19510;BME280;9896;42.486;26.506;2023-03-14T07:20:25;100170.56;;;6.99;66.10
19510;BME280;9896;42.486;26.506;2023-03-14T07:22:50;100170.56;;;6.99;67.52
19510;BME280;9896;42.486;26.506;2023-03-14T07:25:16;100160.06;;;7.95;62.99
19510;BME280;9896;42.486;26.506;2023-03-14T07:27:46;100154.50;;;7.67;63.54
19510;BME280;9896;42.486;26.506;2023-03-14T07:30:14;100163.94;;;8.07;63.14
19510;BME280;9896;42.486;26.506;2023-03-14T07:32:40;100154.97;;;6.57;68.73
19510;BME280;9896;42.486;26.506;2023-03-14T07:35:06;100152.22;;;5.95;72.25
19510;BME280;9896;42.486;26.506;2023-03-14T07:37:32;100146.91;;;5.87;72.75
19510;BME280;9896;42.486;26.506;2023-03-14T07:39:57;100163.34;;;6.15;72.58
19510;BME280;9896;42.486;26.506;2023-03-14T07:42:22;100155.03;;;6.49;72.33
19510;BME280;9896;42.486;26.506;2023-03-14T07:44:48;100152.91;;;5.73;75.30
19510;BME280;9896;42.486;26.506;2023-03-14T07:47:14;100135.25;;;5.96;75.98
19510;BME280;9896;42.486;26.506;2023-03-14T07:49:39;100151.50;;;7.85;67.20
19510;BME280;9896;42.486;26.506;2023-03-14T07:52:05;100142.59;;;7.40;68.59
19510;BME280;9896;42.486;26.506;2023-03-14T07:54:30;100136.56;;;7.76;68.21
19510;BME280;9896;42.486;26.506;2023-03-14T07:56:56;100133.09;;;8.05;67.07
19510;BME280;9896;42.486;26.506;2023-03-14T07:59:23;100127.59;;;6.94;71.79
19510;BME280;9896;42.486;26.506;2023-03-14T08:01:49;100133.28;;;7.14;72.22
19510;BME280;9896;42.486;26.506;2023-03-14T08:04:14;100121.31;;;6.64;74.76
19510;BME280;9896;42.486;26.506;2023-03-14T08:06:40;100112.66;;;7.30;72.46
19510;BME280;9896;42.486;26.506;2023-03-14T08:09:05;100121.06;;;7.05;72.18
19510;BME280;9896;42.486;26.506;2023-03-14T08:11:31;100111.84;;;7.07;72.45
19510;BME280;9896;42.486;26.506;2023-03-14T08:13:56;100110.50;;;7.63;70.72
19510;BME280;9896;42.486;26.506;2023-03-14T08:16:22;100110.28;;;7.50;68.58
19510;BME280;9896;42.486;26.506;2023-03-14T08:18:47;100107.88;;;7.78;68.29
19510;BME280;9896;42.486;26.506;2023-03-14T08:21:14;100108.84;;;7.62;68.23
19510;BME280;9896;42.486;26.506;2023-03-14T08:23:40;100112.38;;;8.07;63.85
19510;BME280;9896;42.486;26.506;2023-03-14T08:26:06;100106.47;;;7.97;66.25
19510;BME280;9896;42.486;26.506;2023-03-14T08:28:31;100098.56;;;8.68;63.68
19510;BME280;9896;42.486;26.506;2023-03-14T08:30:59;100084.22;;;8.55;62.41
19510;BME280;9896;42.486;26.506;2023-03-14T08:33:26;100087.47;;;8.35;63.15
19510;BME280;9896;42.486;26.506;2023-03-14T08:35:55;100083.66;;;7.79;64.05
19510;BME280;9896;42.486;26.506;2023-03-14T08:38:21;100082.91;;;8.65;54.83
19510;BME280;9896;42.486;26.506;2023-03-14T08:40:47;100089.13;;;8.51;53.86
19510;BME280;9896;42.486;26.506;2023-03-14T08:43:14;100077.63;;;8.51;53.25
19510;BME280;9896;42.486;26.506;2023-03-14T08:45:39;100078.47;;;8.07;53.63
19510;BME280;9896;42.486;26.506;2023-03-14T08:48:05;100070.44;;;8.51;53.91
19510;BME280;9896;42.486;26.506;2023-03-14T08:50:30;100057.34;;;9.26;50.44
19510;BME280;9896;42.486;26.506;2023-03-14T08:52:56;100046.06;;;9.31;47.80
19510;BME280;9896;42.486;26.506;2023-03-14T08:55:25;100053.72;;;9.68;47.26
19510;BME280;9896;42.486;26.506;2023-03-14T08:57:52;100040.50;;;9.60;45.94
19510;BME280;9896;42.486;26.506;2023-03-14T09:00:18;100046.63;;;9.54;43.36
19510;BME280;9896;42.486;26.506;2023-03-14T09:02:44;100039.75;;;9.73;43.74
19510;BME280;9896;42.486;26.506;2023-03-14T09:05:10;100043.72;;;9.84;38.05
19510;BME280;9896;42.486;26.506;2023-03-14T09:07:37;100040.28;;;9.96;35.63
19510;BME280;9896;42.486;26.506;2023-03-14T09:10:02;100043.88;;;9.41;37.21
19510;BME280;9896;42.486;26.506;2023-03-14T09:12:28;100039.38;;;10.17;33.06
19510;BME280;9896;42.486;26.506;2023-03-14T09:14:54;100036.84;;;9.68;35.88
19510;BME280;9896;42.486;26.506;2023-03-14T09:17:19;100036.34;;;10.33;36.32
19510;BME280;9896;42.486;26.506;2023-03-14T09:19:45;100030.63;;;10.02;37.00
19510;BME280;9896;42.486;26.506;2023-03-14T09:22:10;100029.78;;;10.49;36.68
19510;BME280;9896;42.486;26.506;2023-03-14T09:24:36;100022.63;;;11.02;35.30
19510;BME280;9896;42.486;26.506;2023-03-14T09:27:01;100019.13;;;10.82;35.65
19510;BME280;9896;42.486;26.506;2023-03-14T09:29:27;99997.47;;;11.16;34.44
19510;BME280;9896;42.486;26.506;2023-03-14T09:31:52;100015.41;;;11.15;34.63
19510;BME280;9896;42.486;26.506;2023-03-14T09:34:18;100007.34;;;10.89;33.75
19510;BME280;9896;42.486;26.506;2023-03-14T09:36:44;100006.91;;;10.53;34.85
19510;BME280;9896;42.486;26.506;2023-03-14T09:39:10;100008.47;;;10.21;34.43
19510;BME280;9896;42.486;26.506;2023-03-14T09:41:40;100001.22;;;10.15;34.93
19510;BME280;9896;42.486;26.506;2023-03-14T09:44:21;99998.25;;;10.51;33.99
19510;BME280;9896;42.486;26.506;2023-03-14T09:46:51;99993.75;;;10.91;33.73
19510;BME280;9896;42.486;26.506;2023-03-14T09:49:21;99988.78;;;11.27;33.10
19510;BME280;9896;42.486;26.506;2023-03-14T09:51:52;99986.91;;;11.21;32.93
19510;BME280;9896;42.486;26.506;2023-03-14T09:57:12;99980.09;;;11.18;33.23
19510;BME280;9896;42.486;26.506;2023-03-14T09:59:38;99974.53;;;11.27;32.13
19510;BME280;9896;42.486;26.506;2023-03-14T10:04:42;99969.38;;;10.53;32.87
19510;BME280;9896;42.486;26.506;2023-03-14T10:07:18;99962.78;;;11.14;30.82
19510;BME280;9896;42.486;26.506;2023-03-14T10:09:49;99947.44;;;11.41;30.07
19510;BME280;9896;42.486;26.506;2023-03-14T10:12:16;99940.75;;;11.77;28.59
19510;BME280;9896;42.486;26.506;2023-03-14T10:14:50;99924.56;;;11.90;28.77
19510;BME280;9896;42.486;26.506;2023-03-14T10:17:17;99938.03;;;11.83;29.68
19510;BME280;9896;42.486;26.506;2023-03-14T10:19:57;99933.09;;;11.80;30.90
19510;BME280;9896;42.486;26.506;2023-03-14T10:22:25;99925.81;;;11.87;30.27
19510;BME280;9896;42.486;26.506;2023-03-14T10:24:56;99919.91;;;11.59;29.67
19510;BME280;9896;42.486;26.506;2023-03-14T10:27:33;99912.16;;;11.31;29.91
19510;BME280;9896;42.486;26.506;2023-03-14T10:30:05;99913.72;;;12.41;29.01
19510;BME280;9896;42.486;26.506;2023-03-14T10:32:37;99904.38;;;11.68;29.97
19510;BME280;9896;42.486;26.506;2023-03-14T10:35:23;99901.44;;;11.82;30.20
19510;BME280;9896;42.486;26.506;2023-03-14T10:37:53;99895.47;;;11.80;28.64
19510;BME280;9896;42.486;26.506;2023-03-14T10:40:27;99881.31;;;10.69;30.49
19510;BME280;9896;42.486;26.506;2023-03-14T10:42:54;99886.63;;;12.36;30.68
19510;BME280;9896;42.486;26.506;2023-03-14T10:47:58;99871.13;;;12.87;32.52
19510;BME280;9896;42.486;26.506;2023-03-14T10:50:29;99872.75;;;12.64;33.41
19510;BME280;9896;42.486;26.506;2023-03-14T10:52:57;99862.69;;;12.59;34.50
19510;BME280;9896;42.486;26.506;2023-03-14T10:55:26;99866.09;;;12.17;34.63
19510;BME280;9896;42.486;26.506;2023-03-14T10:57:51;99849.25;;;12.59;34.30
19510;BME280;9896;42.486;26.506;2023-03-14T11:00:21;99842.31;;;12.20;33.91
19510;BME280;9896;42.486;26.506;2023-03-14T11:05:34;99840.78;;;12.98;33.10
19510;BME280;9896;42.486;26.506;2023-03-14T11:08:15;99826.19;;;13.42;31.81
19510;BME280;9896;42.486;26.506;2023-03-14T11:10:45;99821.19;;;13.10;31.26
19510;BME280;9896;42.486;26.506;2023-03-14T11:13:26;99821.81;;;13.12;31.59
19510;BME280;9896;42.486;26.506;2023-03-14T11:26:42;99778.31;;;13.44;32.40
19510;BME280;9896;42.486;26.506;2023-03-14T11:31:46;99762.47;;;13.66;31.68
19510;BME280;9896;42.486;26.506;2023-03-14T11:34:36;99767.28;;;12.98;31.39
19510;BME280;9896;42.486;26.506;2023-03-14T11:37:06;99749.78;;;13.55;30.99
19510;BME280;9896;42.486;26.506;2023-03-14T11:39:41;99747.75;;;13.50;30.48
19510;BME280;9896;42.486;26.506;2023-03-14T11:42:12;99729.75;;;14.16;29.73
19510;BME280;9896;42.486;26.506;2023-03-14T11:44:40;99732.69;;;14.26;29.39
19510;BME280;9896;42.486;26.506;2023-03-14T11:47:36;99728.50;;;13.65;30.52
19510;BME280;9896;42.486;26.506;2023-03-14T11:50:24;99721.53;;;13.58;30.47
19510;BME280;9896;42.486;26.506;2023-03-14T11:53:22;99713.69;;;14.32;29.29
19510;BME280;9896;42.486;26.506;2023-03-14T11:55:53;99714.59;;;14.15;28.56
19510;BME280;9896;42.486;26.506;2023-03-14T11:58:22;99705.13;;;14.12;28.82
19510;BME280;9896;42.486;26.506;2023-03-14T12:00:51;99693.28;;;14.48;28.67
19510;BME280;9896;42.486;26.506;2023-03-14T12:03:24;99689.97;;;14.69;27.25
19510;BME280;9896;42.486;26.506;2023-03-14T12:11:30;99668.44;;;13.88;27.85
19510;BME280;9896;42.486;26.506;2023-03-14T12:13:57;99658.16;;;13.43;28.70
19510;BME280;9896;42.486;26.506;2023-03-14T12:18:49;99649.22;;;14.43;27.67
19510;BME280;9896;42.486;26.506;2023-03-14T12:21:15;99637.69;;;14.24;27.29
19510;BME280;9896;42.486;26.506;2023-03-14T12:23:49;99630.06;;;14.44;25.46
19510;BME280;9896;42.486;26.506;2023-03-14T12:26:21;99626.88;;;14.59;25.85
19510;BME280;9896;42.486;26.506;2023-03-14T12:28:51;99618.25;;;15.02;25.68
19510;BME280;9896;42.486;26.506;2023-03-14T12:39:40;99608.84;;;14.76;26.53
19510;BME280;9896;42.486;26.506;2023-03-14T12:42:13;99603.00;;;15.07;26.91
19510;BME280;9896;42.486;26.506;2023-03-14T12:44:50;99606.06;;;15.44;26.55
19510;BME280;9896;42.486;26.506;2023-03-14T12:49:53;99597.41;;;15.75;25.28
19510;BME280;9896;42.486;26.506;2023-03-14T12:52:42;99596.81;;;15.40;25.46
19510;BME280;9896;42.486;26.506;2023-03-14T12:55:35;99593.78;;;15.70;25.91
19510;BME280;9896;42.486;26.506;2023-03-14T13:00:34;99569.16;;;16.26;23.72
19510;BME280;9896;42.486;26.506;2023-03-14T13:03:25;99573.47;;;15.67;24.40
19510;BME280;9896;42.486;26.506;2023-03-14T13:05:57;99568.22;;;15.77;24.68
19510;BME280;9896;42.486;26.506;2023-03-14T13:08:37;99569.50;;;15.92;24.66
19510;BME280;9896;42.486;26.506;2023-03-14T13:11:16;99568.47;;;15.43;24.86
19510;BME280;9896;42.486;26.506;2023-03-14T13:13:46;99563.28;;;14.91;24.65
19510;BME280;9896;42.486;26.506;2023-03-14T13:16:17;99558.16;;;15.40;24.14
19510;BME280;9896;42.486;26.506;2023-03-14T13:18:47;99547.50;;;15.66;24.14
19510;BME280;9896;42.486;26.506;2023-03-14T13:21:21;99523.94;;;14.95;24.63
19510;BME280;9896;42.486;26.506;2023-03-14T13:24:05;99541.03;;;15.17;23.55
19510;BME280;9896;42.486;26.506;2023-03-14T13:26:42;99524.22;;;15.49;23.28
19510;BME280;9896;42.486;26.506;2023-03-14T13:29:24;99516.16;;;16.25;22.08
19510;BME280;9896;42.486;26.506;2023-03-14T13:31:52;99520.16;;;16.23;22.14
19510;BME280;9896;42.486;26.506;2023-03-14T13:34:19;99518.56;;;15.84;22.72
19510;BME280;9896;42.486;26.506;2023-03-14T13:36:45;99510.72;;;15.49;22.97
19510;BME280;9896;42.486;26.506;2023-03-14T13:39:17;99507.53;;;15.85;22.95
19510;BME280;9896;42.486;26.506;2023-03-14T13:41:43;99495.44;;;16.63;22.51
19510;BME280;9896;42.486;26.506;2023-03-14T13:44:17;99494.41;;;16.42;22.60
19510;BME280;9896;42.486;26.506;2023-03-14T13:46:47;99497.44;;;16.46;23.01
19510;BME280;9896;42.486;26.506;2023-03-14T13:49:22;99481.56;;;16.81;22.01
19510;BME280;9896;42.486;26.506;2023-03-14T13:51:49;99471.97;;;17.00;21.66